Time;durP1;ratioP1;P1;durP2;ratioP2;P2;SDS_P1;SDS_P2;PMS_P1;PMS_P2;Temp;Humidity;BMP_temperature;BMP_pressure;BME280_temperature;BME280_humidity;BME280_pressure;Samples;Min_cycle;Max_cycle;Signal;HPM_P1;HPM_P2
2023/01/27 00:00:01;;;;;;;;;;;16.40;42.70;;;;;;5111452;28;20192;-71
2023/01/27 00:02:26;;;;;;;;;;;16.60;42.40;;;;;;5129347;28;20733;-71
2023/01/27 00:04:52;;;;;;;;;;;16.80;42.20;;;;;;5132837;27;20007;-71
2023/01/27 00:07:17;;;;;;;;;;;17.10;41.80;;;;;;5097443;28;20045;-71
2023/01/27 00:09:46;;;;;;;;;;;17.60;41.50;;;;;;5115584;28;19964;-71
2023/01/27 00:15:04;;;;;;;;;;;18.60;40.20;;;;;;5096975;28;20405;-71
2023/01/27 00:17:33;;;;;;;;;;;19.20;39.40;;;;;;5097181;28;20018;-71
2023/01/27 00:19:58;;;;;;;;;;;19.70;38.60;;;;;;5097162;28;20024;-72
2023/01/27 00:25:10;;;;;;;;;;;20.40;37.60;;;;;;5096831;28;19920;-71
2023/01/27 00:27:36;;;;;;;;;;;20.70;36.90;;;;;;5097211;28;19926;-71
2023/01/27 00:30:03;;;;;;;;;;;20.90;36.50;;;;;;5131390;27;20363;-71
2023/01/27 00:35:15;;;;;;;;;;;21.40;35.70;;;;;;5096965;28;20355;-72
2023/01/27 00:37:41;;;;;;;;;;;21.60;35.50;;;;;;5115154;28;20070;-71
2023/01/27 00:40:08;;;;;;;;;;;21.70;35.30;;;;;;5115494;28;19920;-71
2023/01/27 00:42:34;;;;;;;;;;;21.80;35.10;;;;;;5115014;28;19973;-72
2023/01/27 00:47:46;;;;;;;;;;;22.00;34.60;;;;;;5114724;28;20007;-71
2023/01/27 00:50:12;;;;;;;;;;;22.10;34.40;;;;;;5096862;28;19966;-71
2023/01/27 00:52:38;;;;;;;;;;;22.20;34.20;;;;;;5096243;28;19971;-71
2023/01/27 00:55:04;;;;;;;;;;;22.30;34.20;;;;;;5114567;28;19923;-71
2023/01/27 00:57:30;;;;;;;;;;;22.40;34.10;;;;;;5114779;28;20259;-71
2023/01/27 00:59:55;;;;;;;;;;;22.40;33.70;;;;;;5114892;28;19955;-71
2023/01/27 01:02:21;;;;;;;;;;;22.50;33.80;;;;;;5096532;28;19920;-71
2023/01/27 01:04:49;;;;;;;;;;;22.60;33.70;;;;;;5096689;28;20355;-70
2023/01/27 01:07:15;;;;;;;;;;;22.60;33.60;;;;;;5096240;28;19923;-71
2023/01/27 01:09:40;;;;;;;;;;;22.70;33.40;;;;;;5096194;28;19976;-71
2023/01/27 01:12:06;;;;;;;;;;;22.70;33.10;;;;;;5114609;28;19928;-72
2023/01/27 01:14:31;;;;;;;;;;;22.80;33.20;;;;;;5095993;28;19928;-71
2023/01/27 01:16:57;;;;;;;;;;;22.80;33.10;;;;;;5095532;28;19963;-71
2023/01/27 01:19:23;;;;;;;;;;;22.90;33.10;;;;;;5096347;28;20026;-72
2023/01/27 01:21:48;;;;;;;;;;;22.90;33.00;;;;;;5114195;28;20330;-72
2023/01/27 01:24:14;;;;;;;;;;;22.90;33.00;;;;;;5096189;28;19919;-72
2023/01/27 01:26:40;;;;;;;;;;;23.00;33.00;;;;;;5095863;28;19919;-71
2023/01/27 01:29:05;;;;;;;;;;;23.10;32.90;;;;;;5096197;28;19988;-71
2023/01/27 01:31:31;;;;;;;;;;;23.10;33.00;;;;;;5114463;28;20363;-71
2023/01/27 01:33:56;;;;;;;;;;;23.00;32.90;;;;;;5095820;28;19920;-71
2023/01/27 01:36:22;;;;;;;;;;;23.10;32.70;;;;;;5095592;28;19926;-71
2023/01/27 01:38:48;;;;;;;;;;;23.20;32.80;;;;;;5113956;28;19920;-71
2023/01/27 01:41:15;;;;;;;;;;;23.20;32.60;;;;;;5095704;28;19919;-71
2023/01/27 01:43:40;;;;;;;;;;;23.20;32.50;;;;;;5095887;28;19924;-71
2023/01/27 01:46:10;;;;;;;;;;;23.30;32.60;;;;;;5113909;28;19929;-71
2023/01/27 01:53:59;;;;;;;;;;;23.30;32.30;;;;;;5110267;27;19912;-71
2023/01/27 01:56:27;;;;;;;;;;;23.40;32.30;;;;;;5109064;28;19927;-71
2023/01/27 01:58:54;;;;;;;;;;;23.40;32.30;;;;;;5108887;28;19977;-71
2023/01/27 02:01:19;;;;;;;;;;;23.40;33.10;;;;;;5109262;28;20015;-71
2023/01/27 02:03:47;;;;;;;;;;;23.40;32.30;;;;;;5108904;28;19955;-71
2023/01/27 02:06:13;;;;;;;;;;;23.50;32.40;;;;;;5108782;28;19920;-72
2023/01/27 02:08:40;;;;;;;;;;;23.40;32.10;;;;;;5109972;28;19924;-71
2023/01/27 02:11:07;;;;;;;;;;;23.50;32.30;;;;;;5109109;28;19920;-71
2023/01/27 02:13:32;;;;;;;;;;;23.50;32.20;;;;;;5108620;28;19924;-71
2023/01/27 02:15:58;;;;;;;;;;;23.60;32.10;;;;;;5109949;28;19927;-72
2023/01/27 02:18:25;;;;;;;;;;;23.60;32.10;;;;;;5108830;28;20061;-72
2023/01/27 02:20:52;;;;;;;;;;;23.60;32.20;;;;;;5108555;28;19999;-72
2023/01/27 02:23:23;;;;;;;;;;;23.60;32.10;;;;;;5108401;28;20010;-71
2023/01/27 02:28:29;;;;;;;;;;;23.70;32.00;;;;;;5133705;27;1919910;-71
2023/01/27 02:30:55;;;;;;;;;;;23.70;31.90;;;;;;5174375;27;20293;-71
2023/01/27 02:33:21;;;;;;;;;;;23.70;31.90;;;;;;5174433;27;19919;-72
2023/01/27 02:35:53;;;;;;;;;;;23.70;31.80;;;;;;5174632;27;19923;-72
2023/01/27 02:38:19;;;;;;;;;;;23.80;31.90;;;;;;5174246;27;20369;-72
2023/01/27 02:40:50;;;;;;;;;;;23.80;31.90;;;;;;5174528;27;20069;-72
2023/01/27 02:43:16;;;;;;;;;;;23.80;31.80;;;;;;5174207;27;19922;-71
2023/01/27 02:45:42;;;;;;;;;;;23.80;31.80;;;;;;5174387;27;19929;-71
2023/01/27 02:48:08;;;;;;;;;;;23.80;31.80;;;;;;5192850;27;20368;-71
2023/01/27 02:50:33;;;;;;;;;;;23.80;31.80;;;;;;5174073;27;19923;-71
2023/01/27 02:52:59;;;;;;;;;;;23.90;31.80;;;;;;5193062;27;19919;-71
2023/01/27 02:55:24;;;;;;;;;;;23.90;31.70;;;;;;5173996;27;19926;-71
2023/01/27 02:57:50;;;;;;;;;;;23.90;31.60;;;;;;5193124;27;19918;-71
2023/01/27 03:00:16;;;;;;;;;;;23.90;31.70;;;;;;5192764;27;19922;-72
2023/01/27 03:02:41;;;;;;;;;;;23.90;31.70;;;;;;5174200;27;20318;-71
2023/01/27 03:05:07;;;;;;;;;;;24.00;31.70;;;;;;5192484;27;19985;-72
2023/01/27 03:07:32;;;;;;;;;;;24.00;31.70;;;;;;5192539;27;20407;-71
2023/01/27 03:09:58;;;;;;;;;;;24.00;31.70;;;;;;5173677;27;19919;-71
2023/01/27 03:12:23;;;;;;;;;;;24.00;31.60;;;;;;5192459;27;19953;-71
2023/01/27 03:20:21;;;;;;;;;;;24.10;31.60;;;;;;5173269;27;19959;-72
2023/01/27 03:22:48;;;;;;;;;;;24.10;31.40;;;;;;5192393;27;19961;-72
2023/01/27 03:25:13;;;;;;;;;;;24.20;31.40;;;;;;5173647;27;19918;-72
2023/01/27 03:27:39;;;;;;;;;;;24.10;31.40;;;;;;5191877;27;20409;-72
2023/01/27 03:30:05;;;;;;;;;;;24.10;31.50;;;;;;5192065;27;20285;-72
2023/01/27 03:32:31;;;;;;;;;;;24.20;31.50;;;;;;5191967;27;19919;-72
2023/01/27 03:34:57;;;;;;;;;;;24.10;31.30;;;;;;5192177;27;20330;-71
2023/01/27 03:46:16;;;;;;;;;;;24.20;31.40;;;;;;5168782;27;20323;-71
2023/01/27 03:48:31;;;;;;;;;;;24.20;31.30;;;;;;5138223;27;19923;-71
2023/01/27 03:51:00;;;;;;;;;;;24.30;31.50;;;;;;5138477;27;19968;-71
2023/01/27 03:53:26;;;;;;;;;;;24.30;31.30;;;;;;5156680;27;19919;-70
2023/01/27 03:55:52;;;;;;;;;;;24.30;31.30;;;;;;5156676;27;20006;-70
2023/01/27 03:58:21;;;;;;;;;;;24.30;31.20;;;;;;5138154;27;19972;-71
2023/01/27 04:00:49;;;;;;;;;;;24.30;31.20;;;;;;5138252;27;20006;-71
2023/01/27 04:08:55;;;;;;;;;;;24.30;31.20;;;;;;5137998;27;19923;-71
2023/01/27 04:14:07;;;;;;;;;;;24.30;31.10;;;;;;5137911;27;19964;-71
2023/01/27 04:16:33;;;;;;;;;;;24.30;31.90;;;;;;5156204;27;19919;-71
2023/01/27 04:18:58;;;;;;;;;;;24.30;31.20;;;;;;5138044;27;19919;-72
2023/01/27 04:21:25;;;;;;;;;;;24.30;31.10;;;;;;5137735;27;20437;-72
2023/01/27 04:23:51;;;;;;;;;;;24.40;31.20;;;;;;5156356;27;19919;-72
2023/01/27 04:26:16;;;;;;;;;;;24.40;31.00;;;;;;5137785;27;19926;-72
2023/01/27 04:28:42;;;;;;;;;;;24.40;31.10;;;;;;5137080;27;20301;-72
2023/01/27 04:31:08;;;;;;;;;;;24.40;31.00;;;;;;5137366;27;19919;-71
2023/01/27 04:33:33;;;;;;;;;;;24.30;30.90;;;;;;5137372;27;19919;-72
2023/01/27 04:35:59;;;;;;;;;;;24.40;31.00;;;;;;5137671;27;19949;-71
2023/01/27 04:38:24;;;;;;;;;;;24.30;31.00;;;;;;5137608;27;19926;-71
2023/01/27 04:40:50;;;;;;;;;;;24.30;31.00;;;;;;5137717;27;20076;-71
2023/01/27 04:43:15;;;;;;;;;;;24.40;31.00;;;;;;5137559;27;20303;-71
2023/01/27 04:45:41;;;;;;;;;;;24.40;31.00;;;;;;5164537;27;19926;-71
2023/01/27 04:48:07;;;;;;;;;;;24.40;30.90;;;;;;5176372;27;19922;-71
2023/01/27 04:50:32;;;;;;;;;;;24.40;30.90;;;;;;5175797;27;20013;-71
2023/01/27 04:52:58;;;;;;;;;;;24.40;30.90;;;;;;5157771;27;20017;-71
2023/01/27 04:55:23;;;;;;;;;;;24.40;30.90;;;;;;5176567;27;19940;-72
2023/01/27 04:57:49;;;;;;;;;;;24.40;30.90;;;;;;5176399;27;20361;-71
2023/01/27 05:00:15;;;;;;;;;;;24.40;30.90;;;;;;5158010;27;20269;-72
2023/01/27 05:02:40;;;;;;;;;;;24.40;30.70;;;;;;5157763;27;19974;-72
2023/01/27 05:05:06;;;;;;;;;;;24.40;30.80;;;;;;5176532;27;19923;-71
2023/01/27 05:07:31;;;;;;;;;;;24.40;30.80;;;;;;5157416;27;20277;-71
2023/01/27 05:10:00;;;;;;;;;;;24.50;30.80;;;;;;5157419;27;19919;-71
2023/01/27 05:12:25;;;;;;;;;;;24.50;30.70;;;;;;5157390;27;20430;-71
2023/01/27 05:14:51;;;;;;;;;;;24.60;30.70;;;;;;5157320;27;19923;-71
2023/01/27 05:17:17;;;;;;;;;;;24.70;30.50;;;;;;5157207;27;20176;-71
2023/01/27 05:19:42;;;;;;;;;;;24.70;30.50;;;;;;5157524;27;20017;-71
2023/01/27 05:22:10;;;;;;;;;;;24.80;30.40;;;;;;5157494;27;20381;-72
2023/01/27 05:24:35;;;;;;;;;;;24.90;30.30;;;;;;5157113;27;19919;-72
2023/01/27 05:27:01;;;;;;;;;;;25.00;30.20;;;;;;5175757;27;19923;-71
2023/01/27 05:29:27;;;;;;;;;;;25.10;30.20;;;;;;5156859;27;19923;-72
2023/01/27 05:31:52;;;;;;;;;;;25.20;30.00;;;;;;5156928;27;19919;-72
2023/01/27 05:34:18;;;;;;;;;;;25.20;29.90;;;;;;5175583;27;19919;-72
2023/01/27 05:36:43;;;;;;;;;;;25.30;30.00;;;;;;5156939;27;20333;-71
2023/01/27 05:39:09;;;;;;;;;;;25.40;29.90;;;;;;5157142;27;19925;-71
2023/01/27 05:41:35;;;;;;;;;;;25.40;29.90;;;;;;5157323;27;20013;-72
2023/01/27 05:44:01;;;;;;;;;;;25.40;29.90;;;;;;5156954;27;20332;-71
2023/01/27 05:46:28;;;;;;;;;;;25.30;29.80;;;;;;5160106;27;19946;-72
2023/01/27 05:48:55;;;;;;;;;;;25.30;29.90;;;;;;5136172;27;20286;-72
2023/01/27 05:51:22;;;;;;;;;;;25.20;29.80;;;;;;5154441;27;19923;-72
2023/01/27 05:53:51;;;;;;;;;;;25.20;30.00;;;;;;5154558;27;19919;-71
2023/01/27 05:56:18;;;;;;;;;;;25.20;29.90;;;;;;5154408;27;19919;-71
2023/01/27 05:58:44;;;;;;;;;;;25.10;30.00;;;;;;5135767;27;19919;-71
2023/01/27 06:01:12;;;;;;;;;;;25.10;30.00;;;;;;5135838;27;19925;-72
2023/01/27 06:03:38;;;;;;;;;;;25.10;30.00;;;;;;5154276;27;20398;-72
2023/01/27 06:06:04;;;;;;;;;;;25.00;30.00;;;;;;5135691;27;19965;-72
2023/01/27 06:08:30;;;;;;;;;;;25.10;30.00;;;;;;5154180;27;19923;-72
2023/01/27 06:10:58;;;;;;;;;;;25.00;30.00;;;;;;5135963;27;19919;-72
2023/01/27 06:13:24;;;;;;;;;;;25.10;30.00;;;;;;5136005;27;19919;-72
2023/01/27 06:15:50;;;;;;;;;;;25.10;30.00;;;;;;5135490;27;20461;-71
2023/01/27 06:18:17;;;;;;;;;;;25.10;30.00;;;;;;5135432;27;19923;-73
2023/01/27 06:20:43;;;;;;;;;;;25.20;30.00;;;;;;5135509;27;20009;-73
2023/01/27 06:23:09;;;;;;;;;;;25.20;29.90;;;;;;5135496;27;19972;-72
2023/01/27 06:25:39;;;;;;;;;;;25.20;29.90;;;;;;5135701;27;19919;-73
2023/01/27 06:28:05;;;;;;;;;;;25.20;29.90;;;;;;5135124;27;19972;-72
2023/01/27 06:30:31;;;;;;;;;;;25.20;29.90;;;;;;5154014;27;19919;-72
2023/01/27 06:32:57;;;;;;;;;;;25.20;29.80;;;;;;5153976;27;19972;-72
2023/01/27 06:35:22;;;;;;;;;;;25.20;29.90;;;;;;5154225;27;19923;-72
2023/01/27 06:37:50;;;;;;;;;;;25.20;29.90;;;;;;5152233;27;19971;-72
2023/01/27 06:40:16;;;;;;;;;;;25.20;29.90;;;;;;5133906;27;20011;-73
2023/01/27 06:42:42;;;;;;;;;;;25.20;29.90;;;;;;5133388;27;19976;-72
2023/01/27 06:45:09;;;;;;;;;;;25.10;29.90;;;;;;5120424;27;19926;-73
2023/01/27 06:47:34;;;;;;;;;;;25.10;29.90;;;;;;5173084;27;19923;-74
2023/01/27 06:50:00;;;;;;;;;;;24.90;30.10;;;;;;5137706;27;20277;-73
2023/01/27 06:52:25;;;;;;;;;;;24.60;30.30;;;;;;5149480;27;19927;-73
2023/01/27 06:54:51;;;;;;;;;;;24.40;30.60;;;;;;5150946;27;19919;-73
2023/01/27 06:57:16;;;;;;;;;;;24.40;30.70;;;;;;5133061;27;19923;-73
2023/01/27 06:59:45;;;;;;;;;;;24.40;30.80;;;;;;5132743;27;19923;-72
2023/01/27 07:02:11;;;;;;;;;;;24.40;30.80;;;;;;5132088;27;20397;-72
2023/01/27 07:04:36;;;;;;;;;;;24.30;30.00;;;;;;5133197;27;19919;-72
2023/01/27 07:07:02;;;;;;;;;;;24.00;29.80;;;;;;5152627;27;19978;-74
2023/01/27 07:09:27;;;;;;;;;;;23.70;30.00;;;;;;5133360;27;19997;-72
2023/01/27 07:11:53;;;;;;;;;;;23.50;29.70;;;;;;5131002;27;20362;-73
2023/01/27 07:14:19;;;;;;;;;;;23.60;30.10;;;;;;5152818;27;19919;-74
2023/01/27 07:16:45;;;;;;;;;;;23.70;30.30;;;;;;5134463;27;19927;-73
2023/01/27 07:19:11;;;;;;;;;;;23.90;30.50;;;;;;5141422;27;19958;-71
2023/01/27 07:21:37;;;;;;;;;;;24.00;30.50;;;;;;5117739;27;19923;-71
2023/01/27 07:24:03;;;;;;;;;;;23.90;30.40;;;;;;5128406;27;20177;-71
2023/01/27 07:26:31;;;;;;;;;;;24.00;30.30;;;;;;5131945;27;20132;-72
2023/01/27 07:28:56;;;;;;;;;;;24.20;30.10;;;;;;5148624;27;19923;-69
2023/01/27 07:31:22;;;;;;;;;;;24.40;30.10;;;;;;5151335;27;19926;-69
2023/01/27 07:33:48;;;;;;;;;;;24.40;30.10;;;;;;5134246;27;19927;-69
2023/01/27 07:36:13;;;;;;;;;;;24.50;30.10;;;;;;5136931;27;20317;-68
2023/01/27 07:38:39;;;;;;;;;;;24.70;30.00;;;;;;5152889;27;19934;-71
2023/01/27 07:41:05;;;;;;;;;;;25.00;29.80;;;;;;5156789;27;19925;-70
2023/01/27 07:43:31;;;;;;;;;;;25.20;29.50;;;;;;5133881;27;20006;-70
2023/01/27 07:45:57;;;;;;;;;;;25.10;29.40;;;;;;5136670;27;20433;-70
2023/01/27 07:48:22;;;;;;;;;;;24.70;29.20;;;;;;5132675;27;19927;-71
2023/01/27 07:50:48;;;;;;;;;;;24.20;29.20;;;;;;5151354;27;19933;-74
2023/01/27 07:53:14;;;;;;;;;;;23.80;29.80;;;;;;5157086;27;19918;-70
2023/01/27 07:55:39;;;;;;;;;;;23.50;30.40;;;;;;5135740;27;20031;-74
2023/01/27 07:58:06;;;;;;;;;;;23.30;30.80;;;;;;5133967;27;20002;-70
2023/01/27 08:00:32;;;;;;;;;;;23.10;31.20;;;;;;5153172;27;20382;-73
2023/01/27 08:02:58;;;;;;;;;;;23.00;31.60;;;;;;5147732;27;20067;-70
2023/01/27 08:05:24;;;;;;;;;;;22.90;31.90;;;;;;5156819;27;19930;-67
2023/01/27 08:07:50;;;;;;;;;;;22.80;32.00;;;;;;5156127;27;20377;-70
2023/01/27 08:10:17;;;;;;;;;;;22.80;32.10;;;;;;5140810;27;19926;-71
2023/01/27 08:12:43;;;;;;;;;;;22.80;32.30;;;;;;5139423;27;19926;-70
2023/01/27 08:15:09;;;;;;;;;;;22.70;32.40;;;;;;5135204;27;20333;-73
2023/01/27 08:17:34;;;;;;;;;;;22.60;32.60;;;;;;5140374;27;20321;-73
2023/01/27 08:20:00;;;;;;;;;;;22.50;32.80;;;;;;5155630;27;20352;-70
2023/01/27 08:22:27;;;;;;;;;;;22.40;32.90;;;;;;5141233;27;20030;-68
2023/01/27 08:24:52;;;;;;;;;;;22.30;33.10;;;;;;5154568;27;19922;-72
2023/01/27 08:27:18;;;;;;;;;;;22.20;33.30;;;;;;5138227;27;19935;-70
2023/01/27 08:29:43;;;;;;;;;;;22.10;33.40;;;;;;5138119;27;19967;-73
2023/01/27 08:32:09;;;;;;;;;;;22.00;33.60;;;;;;5136833;27;19923;-71
2023/01/27 08:34:35;;;;;;;;;;;21.90;33.80;;;;;;5136971;27;20169;-75
2023/01/27 08:37:01;;;;;;;;;;;21.80;33.90;;;;;;5134586;27;19967;-70
2023/01/27 08:39:26;;;;;;;;;;;21.70;34.10;;;;;;5140715;27;19966;-74
2023/01/27 08:41:55;;;;;;;;;;;21.60;34.30;;;;;;5152876;27;20018;-72
2023/01/27 08:44:20;;;;;;;;;;;21.50;34.60;;;;;;5136336;27;19929;-70
2023/01/27 08:46:46;;;;;;;;;;;21.40;35.00;;;;;;5133893;27;19927;-72
2023/01/27 08:49:13;;;;;;;;;;;21.20;35.40;;;;;;5150525;27;20006;-72
2023/01/27 08:51:39;;;;;;;;;;;21.10;36.40;;;;;;5131517;27;19922;-71
2023/01/27 08:54:05;;;;;;;;;;;21.00;35.80;;;;;;5156454;27;19967;-69
2023/01/27 08:56:30;;;;;;;;;;;20.90;36.20;;;;;;5134187;27;20347;-69
2023/01/27 08:58:56;;;;;;;;;;;20.90;36.30;;;;;;5140161;27;19946;-71
2023/01/27 09:01:22;;;;;;;;;;;20.80;36.30;;;;;;5141371;27;19951;-70
2023/01/27 09:03:50;;;;;;;;;;;20.70;36.40;;;;;;5150012;27;19930;-68
2023/01/27 09:06:16;;;;;;;;;;;20.70;36.70;;;;;;5150507;27;20534;-71
2023/01/27 09:08:42;;;;;;;;;;;20.60;36.70;;;;;;5150467;27;19923;-70
2023/01/27 09:11:08;;;;;;;;;;;20.50;36.70;;;;;;5131558;27;19926;-68
2023/01/27 09:13:37;;;;;;;;;;;20.50;37.00;;;;;;5134145;27;19923;-72
2023/01/27 09:16:03;;;;;;;;;;;20.40;37.20;;;;;;5134854;27;20687;-68
2023/01/27 09:18:28;;;;;;;;;;;20.60;37.10;;;;;;5130011;27;19927;-68
2023/01/27 09:20:54;;;;;;;;;;;21.00;36.80;;;;;;5136041;27;20240;-72
2023/01/27 09:23:19;;;;;;;;;;;21.50;36.40;;;;;;5136092;27;19923;-72
2023/01/27 09:25:45;;;;;;;;;;;22.00;35.90;;;;;;5136993;27;19962;-76
2023/01/27 09:28:15;;;;;;;;;;;22.70;35.40;;;;;;5148780;27;19977;-70
2023/01/27 09:30:42;;;;;;;;;;;23.10;34.60;;;;;;5133184;27;19928;-73
2023/01/27 09:33:08;;;;;;;;;;;23.40;34.40;;;;;;5132948;27;19930;-70
2023/01/27 09:35:36;;;;;;;;;;;23.70;34.00;;;;;;5133856;27;19923;-70
2023/01/27 09:38:03;;;;;;;;;;;23.90;33.30;;;;;;5137231;27;19963;-69
2023/01/27 09:40:51;;;;;;;;;;;24.10;33.00;;;;;;5131330;27;20054;-69
2023/01/27 09:54:17;;;;;;;;;;;24.00;31.70;;;;;;5057112;28;19931;-68
2023/01/27 10:13:31;;;;;;;;;;;21.90;33.40;;;;;;5078307;27;19938;-67
2023/01/27 10:16:18;;;;;;;;;;;21.80;33.60;;;;;;5105843;28;20298;-66
2023/01/27 10:18:54;;;;;;;;;;;21.90;33.50;;;;;;5073712;28;20013;-68
2023/01/27 10:21:40;;;;;;;;;;;22.20;33.50;;;;;;5070480;28;19928;-69
2023/01/27 10:24:13;;;;;;;;;;;22.50;33.20;;;;;;5071675;28;19928;-70
2023/01/27 10:26:49;;;;;;;;;;;22.90;33.00;;;;;;5069941;28;19924;-69
2023/01/27 10:29:37;;;;;;;;;;;23.30;32.30;;;;;;5074521;28;20736;-71
2023/01/27 10:32:22;;;;;;;;;;;23.40;32.10;;;;;;5103570;28;19935;-70
2023/01/27 10:34:56;;;;;;;;;;;23.40;32.30;;;;;;5075031;28;19978;-67
2023/01/27 10:37:29;;;;;;;;;;;23.20;32.60;;;;;;5104223;28;19924;-69
2023/01/27 10:40:15;;;;;;;;;;;23.20;32.80;;;;;;5064962;28;19929;-72
2023/01/27 10:42:46;;;;;;;;;;;23.20;33.00;;;;;;5072358;28;19983;-68
2023/01/27 10:45:23;;;;;;;;;;;23.10;33.00;;;;;;5057676;28;19925;-70
2023/01/27 10:53:35;;;;;;;;;;;22.80;33.20;;;;;;5057143;28;19918;-71
2023/01/27 10:58:43;;;;;;;;;;;22.60;34.30;;;;;;5088057;27;19930;-69
2023/01/27 11:01:10;;;;;;;;;;;22.50;33.90;;;;;;5087118;28;19928;-74
2023/01/27 11:03:40;;;;;;;;;;;22.60;34.20;;;;;;5085040;28;19928;-72
2023/01/27 11:06:10;;;;;;;;;;;22.90;34.30;;;;;;5089034;28;19920;-74
2023/01/27 11:08:40;;;;;;;;;;;23.40;33.90;;;;;;5090280;28;20283;-73
2023/01/27 11:14:01;;;;;;;;;;;24.20;32.40;;;;;;5096416;28;20280;-72
2023/01/27 11:16:30;;;;;;;;;;;24.30;32.70;;;;;;5100327;28;19924;-68
2023/01/27 11:18:58;;;;;;;;;;;24.50;32.80;;;;;;5090418;28;20427;-71
2023/01/27 11:21:26;;;;;;;;;;;24.70;32.60;;;;;;5089690;28;19954;-69
2023/01/27 11:23:55;;;;;;;;;;;24.90;32.50;;;;;;5089551;28;20020;-71
2023/01/27 11:26:39;;;;;;;;;;;25.00;32.30;;;;;;5091476;28;19925;-70
2023/01/27 11:29:25;;;;;;;;;;;25.00;32.20;;;;;;5122489;27;20365;-71
2023/01/27 11:32:10;;;;;;;;;;;24.80;32.10;;;;;;5088697;28;20011;-70
2023/01/27 11:37:28;;;;;;;;;;;24.50;32.20;;;;;;5089949;27;19916;-70
2023/01/27 11:39:53;;;;;;;;;;;24.40;32.40;;;;;;5120694;27;20048;-70
2023/01/27 11:42:20;;;;;;;;;;;24.10;32.40;;;;;;5089223;28;19932;-69
2023/01/27 11:44:48;;;;;;;;;;;24.00;32.70;;;;;;5118294;27;19965;-68
2023/01/27 11:47:21;;;;;;;;;;;23.80;32.80;;;;;;5089290;28;20016;-68
2023/01/27 11:49:48;;;;;;;;;;;23.60;33.10;;;;;;5089642;28;19931;-72
2023/01/27 11:52:16;;;;;;;;;;;23.40;33.50;;;;;;5091739;28;20503;-74
2023/01/27 11:57:26;;;;;;;;;;;23.00;34.10;;;;;;5083306;27;19927;-70
2023/01/27 11:59:57;;;;;;;;;;;22.90;34.40;;;;;;5111510;27;20348;-71
2023/01/27 12:02:33;;;;;;;;;;;22.70;34.70;;;;;;5075244;28;20022;-68
2023/01/27 12:05:03;;;;;;;;;;;22.60;35.00;;;;;;5082973;28;19925;-74
2023/01/27 12:07:48;;;;;;;;;;;22.40;35.30;;;;;;5078295;28;19924;-69
2023/01/27 12:10:34;;;;;;;;;;;22.20;35.60;;;;;;5112018;27;19928;-73
2023/01/27 12:13:06;;;;;;;;;;;22.10;35.80;;;;;;5105013;27;19924;-70
2023/01/27 12:15:32;;;;;;;;;;;21.90;36.20;;;;;;5077022;28;19935;-71
2023/01/27 12:17:58;;;;;;;;;;;21.80;36.40;;;;;;5061333;28;20387;-72
2023/01/27 12:20:41;;;;;;;;;;;21.70;36.70;;;;;;5077929;28;19931;-69
2023/01/27 12:23:17;;;;;;;;;;;21.60;36.90;;;;;;5075698;28;19932;-72
2023/01/27 12:25:45;;;;;;;;;;;21.50;37.10;;;;;;5074427;28;19935;-72
2023/01/27 12:28:20;;;;;;;;;;;21.40;37.50;;;;;;5099982;28;19928;-71
2023/01/27 12:30:46;;;;;;;;;;;21.30;37.10;;;;;;5102033;28;20292;-73
2023/01/27 12:33:13;;;;;;;;;;;21.20;36.90;;;;;;5070296;28;20341;-71
2023/01/27 12:35:39;;;;;;;;;;;20.90;37.20;;;;;;5074396;28;19924;-72
2023/01/27 12:38:15;;;;;;;;;;;20.80;37.30;;;;;;5105437;27;19977;-71
2023/01/27 12:40:42;;;;;;;;;;;20.80;37.50;;;;;;5092455;28;19924;-71
2023/01/27 12:43:16;;;;;;;;;;;20.90;37.50;;;;;;5074561;28;20018;-71
2023/01/27 12:45:42;;;;;;;;;;;21.00;37.30;;;;;;5074372;28;20336;-73
2023/01/27 12:53:28;;;;;;;;;;;21.60;36.40;;;;;;5078965;27;19968;-74
2023/01/27 12:56:10;;;;;;;;;;;21.80;36.40;;;;;;5054794;28;19925;-76
2023/01/27 12:58:40;;;;;;;;;;;22.00;36.20;;;;;;5089482;28;19929;-69
2023/01/27 13:01:18;;;;;;;;;;;22.20;36.00;;;;;;5055698;28;19925;-72
2023/01/27 13:03:44;;;;;;;;;;;22.40;35.70;;;;;;5055667;28;20343;-70
2023/01/27 13:06:13;;;;;;;;;;;22.60;35.50;;;;;;5053122;28;20447;-70
2023/01/27 13:08:40;;;;;;;;;;;22.70;35.20;;;;;;5050669;28;19937;-69
2023/01/27 13:11:11;;;;;;;;;;;22.70;35.00;;;;;;5052985;28;19936;-72
2023/01/27 13:13:46;;;;;;;;;;;22.70;34.90;;;;;;5054542;28;20307;-73
2023/01/27 13:16:16;;;;;;;;;;;22.60;35.00;;;;;;5052616;28;19929;-75
2023/01/27 13:18:51;;;;;;;;;;;22.60;35.10;;;;;;5051331;28;20249;-73
2023/01/27 13:21:17;;;;;;;;;;;22.50;35.20;;;;;;5083123;28;20435;-65
2023/01/27 13:23:44;;;;;;;;;;;22.40;35.60;;;;;;5043980;28;19935;-72
2023/01/27 13:26:14;;;;;;;;;;;22.30;35.50;;;;;;5074394;28;19929;-68
2023/01/27 13:28:50;;;;;;;;;;;22.10;35.80;;;;;;5047112;28;19951;-67
2023/01/27 13:31:20;;;;;;;;;;;21.90;36.20;;;;;;5047363;28;20227;-67
2023/01/27 13:33:55;;;;;;;;;;;21.70;36.40;;;;;;5078188;28;19928;-70
2023/01/27 13:39:24;;;;;;;;;;;21.40;37.10;;;;;;5046595;28;19925;-67
2023/01/27 13:41:58;;;;;;;;;;;21.30;37.10;;;;;;5043024;28;19929;-70
2023/01/27 13:44:28;;;;;;;;;;;21.20;37.50;;;;;;5044003;28;19990;-68
2023/01/27 13:46:58;;;;;;;;;;;21.10;37.60;;;;;;5044914;28;19978;-70
2023/01/27 13:52:09;;;;;;;;;;;21.00;37.90;;;;;;5049556;27;19929;-71
2023/01/27 13:54:35;;;;;;;;;;;20.90;37.50;;;;;;5046643;28;20259;-74
2023/01/27 13:57:07;;;;;;;;;;;21.10;37.50;;;;;;5044567;28;20324;-68
2023/01/27 14:02:25;;;;;;;;;;;21.30;38.30;;;;;;5144909;27;20384;-72
2023/01/27 14:07:37;;;;;;;;;;;21.50;37.20;;;;;;5081206;27;19916;-72
2023/01/27 14:13:05;;;;;;;;;;;21.80;36.40;;;;;;5073104;28;19913;-67
2023/01/27 14:15:51;;;;;;;;;;;21.70;35.60;;;;;;5051187;28;19960;-68
2023/01/27 14:18:36;;;;;;;;;;;21.60;35.40;;;;;;5067403;28;19936;-68
2023/01/27 14:21:16;;;;;;;;;;;21.60;35.00;;;;;;5058341;28;19972;-68
2023/01/27 14:32:05;;;;;;;;;;;21.70;34.00;;;;;;5103705;27;1863126;-68
2023/01/27 14:34:36;;;;;;;;;;;21.90;34.00;;;;;;5159323;27;20026;-68
2023/01/27 14:37:09;;;;;;;;;;;22.00;33.80;;;;;;5139587;27;20006;-67
2023/01/27 14:39:40;;;;;;;;;;;22.00;33.70;;;;;;5138986;27;19920;-67
2023/01/27 14:42:10;;;;;;;;;;;22.10;33.70;;;;;;5137567;27;19923;-67
2023/01/27 14:47:32;;;;;;;;;;;22.20;33.40;;;;;;5083939;27;19923;-67
2023/01/27 14:52:55;;;;;;;;;;;22.20;33.40;;;;;;5102745;27;1867123;-67
2023/01/27 14:55:30;;;;;;;;;;;22.20;33.40;;;;;;5142385;27;20382;-68
2023/01/27 14:58:02;;;;;;;;;;;22.30;33.40;;;;;;5136128;27;19956;-71
2023/01/27 15:00:47;;;;;;;;;;;22.40;33.50;;;;;;5134360;27;19968;-72
2023/01/27 15:11:51;;;;;;;;;;;21.90;33.50;;;;;;5120440;27;1864188;-69
2023/01/27 15:14:26;;;;;;;;;;;21.80;33.50;;;;;;5150719;27;19923;-70
2023/01/27 15:22:19;;;;;;;;;;;21.50;34.00;;;;;;5106674;27;19916;-85
2023/01/27 15:27:23;;;;;;;;;;;21.30;34.20;;;;;;5104222;27;19943;-70
2023/01/27 15:29:52;;;;;;;;;;;21.30;34.50;;;;;;5096505;28;19924;-70
2023/01/27 15:35:17;;;;;;;;;;;21.10;34.80;;;;;;5108562;27;19917;-71
2023/01/27 15:37:54;;;;;;;;;;;21.00;35.00;;;;;;5102153;28;19966;-72
2023/01/27 15:40:21;;;;;;;;;;;20.90;35.30;;;;;;5104645;28;19931;-67
2023/01/27 15:43:07;;;;;;;;;;;20.80;35.40;;;;;;5103374;28;19924;-70
2023/01/27 15:45:37;;;;;;;;;;;20.60;35.50;;;;;;5106397;28;19969;-70
2023/01/27 15:48:12;;;;;;;;;;;20.50;35.70;;;;;;5106523;28;19920;-72
2023/01/27 15:50:44;;;;;;;;;;;20.30;36.00;;;;;;5106722;28;19920;-73
2023/01/27 15:53:12;;;;;;;;;;;20.20;36.20;;;;;;5106403;28;20293;-73
2023/01/27 15:55:46;;;;;;;;;;;20.20;36.20;;;;;;5109336;28;20326;-73
2023/01/27 16:00:54;;;;;;;;;;;20.20;36.40;;;;;;5109911;27;19918;-73
2023/01/27 16:06:07;;;;;;;;;;;20.20;36.30;;;;;;5089363;28;20288;-73
2023/01/27 16:08:37;;;;;;;;;;;20.10;36.20;;;;;;5088717;28;19967;-73
2023/01/27 16:11:23;;;;;;;;;;;20.20;36.30;;;;;;5089648;28;20342;-74
2023/01/27 16:13:49;;;;;;;;;;;20.20;36.20;;;;;;5088340;28;19966;-73
2023/01/27 16:19:02;;;;;;;;;;;20.10;36.30;;;;;;5126804;27;1868445;-75
2023/01/27 16:21:48;;;;;;;;;;;20.10;36.30;;;;;;5173898;27;20017;-75
2023/01/27 16:27:28;;;;;;;;;;;20.00;36.40;;;;;;5089319;28;19918;-74
2023/01/27 16:29:58;;;;;;;;;;;19.90;36.40;;;;;;5088269;28;20375;-73
2023/01/27 16:32:27;;;;;;;;;;;19.90;36.50;;;;;;5087877;28;19920;-73
2023/01/27 16:34:56;;;;;;;;;;;19.80;36.50;;;;;;5089366;28;19924;-73
2023/01/27 16:37:23;;;;;;;;;;;19.70;36.60;;;;;;5087474;28;19943;-74
2023/01/27 16:40:08;;;;;;;;;;;19.70;36.70;;;;;;5087922;28;20279;-73
2023/01/27 16:42:36;;;;;;;;;;;19.70;36.70;;;;;;5087605;28;19920;-75
2023/01/27 16:45:14;;;;;;;;;;;19.60;36.70;;;;;;5087413;28;20015;-73
2023/01/27 16:47:42;;;;;;;;;;;19.50;36.80;;;;;;5088251;28;19920;-74
2023/01/27 16:50:27;;;;;;;;;;;19.50;36.80;;;;;;5088422;28;19921;-73
2023/01/27 16:52:53;;;;;;;;;;;19.40;36.90;;;;;;5104413;28;19973;-73